Aviation Digital Data Service (ADDS)

Output produced by METARs form (0936 UTC 26 January 2020)
found at http://www.aviationweather.gov/metar/data/
 
Forecast for: LIRN (NAPLES/CAPODICHI, IT)
Text: TAF LIRN 260621Z 2606/2706 VRB06KT 7000 SCT020 SCT040
Forecast period: 0600 UTC 26 January 2020 to 0600 UTC 27 January 2020
Forecast type: FROM: standard forecast or significant change
Winds: variable direction winds at 7 MPH (6 knots; 3.1 m/s)
Visibility: 4 miles (7 km)
Ceiling: at least 12,000 feet AGL
Clouds: scattered clouds at 2000 feet AGL
scattered clouds at 4000 feet AGL
Weather: no significant weather forecast for this period
Text: TEMPO 2609/2615 3000 TSRA SCT020CB
Forecast period: 0900 to 1500 UTC 26 January 2020
Forecast type: TEMPORARY: The following changes expected for less than half the time period
Visibility: 1.86 miles (2.99 km)
Ceiling: at least 12,000 feet AGL
Clouds: scattered clouds at 2000 feet AGL
Weather: TSRA  (rain associated with thunderstorm(s))
Text: TEMPO 2702/2706 1500 BR
Forecast period: 0200 to 0600 UTC 27 January 2020
Forecast type: TEMPORARY: The following changes expected for less than half the time period
Visibility: 0.93 miles (1.50 km)
Ceiling: unknown
Clouds: missing
Weather: BR  (mist)